createdAt,value
2019-03-20T00:00:58.264Z,2.47
2019-03-20T00:04:06.199Z,2.10
2019-03-20T00:07:13.720Z,2.02
2019-03-20T00:10:20.550Z,2.10
2019-03-20T00:13:28.212Z,2.27
2019-03-20T00:16:35.542Z,2.10
2019-03-20T00:19:42.242Z,2.30
2019-03-20T00:22:48.674Z,2.13
2019-03-20T00:25:55.108Z,2.37
2019-03-20T00:29:01.644Z,2.03
2019-03-20T00:32:09.844Z,2.30
2019-03-20T00:35:16.259Z,2.10
2019-03-20T00:38:23.053Z,1.80
2019-03-20T00:41:31.000Z,2.20
2019-03-20T00:44:37.556Z,1.70
2019-03-20T00:47:44.144Z,1.87
2019-03-20T00:50:50.833Z,1.60
2019-03-20T00:53:58.595Z,1.67
2019-03-20T00:57:05.022Z,1.90
2019-03-20T01:00:14.560Z,1.80
2019-03-20T01:03:21.031Z,1.80
2019-03-20T01:06:27.399Z,1.87
2019-03-20T01:09:34.227Z,1.77
2019-03-20T01:12:40.709Z,1.70
2019-03-20T01:15:52.422Z,2.23
2019-03-20T01:19:01.326Z,1.80
2019-03-20T01:22:08.307Z,1.47
2019-03-20T01:25:16.284Z,2.10
2019-03-20T01:28:23.680Z,1.80
2019-03-20T01:31:31.546Z,1.47
2019-03-20T01:34:38.943Z,1.60
2019-03-20T01:37:46.609Z,1.70
2019-03-20T01:40:55.347Z,1.50
2019-03-20T01:44:04.907Z,1.40
2019-03-20T01:47:12.928Z,1.67
2019-03-20T01:50:21.022Z,1.60
2019-03-20T01:53:29.071Z,1.60
2019-03-20T01:56:35.518Z,1.73
2019-03-20T01:59:44.408Z,1.40
2019-03-20T02:02:50.870Z,1.47
2019-03-20T02:05:58.692Z,1.60
2019-03-20T02:09:07.352Z,1.60
2019-03-20T02:12:13.851Z,1.70
2019-03-20T02:15:21.727Z,1.50
2019-03-20T02:18:28.095Z,1.70
2019-03-20T02:21:34.998Z,1.37
2019-03-20T02:24:42.278Z,1.40
2019-03-20T02:27:49.774Z,1.40
2019-03-20T02:30:56.808Z,1.20
2019-03-20T02:34:03.135Z,1.17
2019-03-20T02:37:09.652Z,1.20
2019-03-20T02:40:16.456Z,1.57
2019-03-20T02:43:23.587Z,1.23
2019-03-20T02:46:30.013Z,1.20
2019-03-20T02:49:36.723Z,1.30
2019-03-20T02:52:45.046Z,1.07
2019-03-20T02:55:53.004Z,1.10
2019-03-20T02:58:59.369Z,1.40
2019-03-20T03:02:06.459Z,1.40
2019-03-20T03:05:13.643Z,1.40
2019-03-20T03:08:20.025Z,1.10
2019-03-20T03:11:26.504Z,1.10
2019-03-20T03:14:33.089Z,1.30
2019-03-20T03:17:41.003Z,1.30
2019-03-20T03:20:47.902Z,1.23
2019-03-20T03:23:55.875Z,1.10
2019-03-20T03:27:02.789Z,1.10
2019-03-20T03:30:09.540Z,1.20
2019-03-20T03:33:20.661Z,1.00
2019-03-20T03:36:30.558Z,1.10
2019-03-20T03:39:38.527Z,1.30
2019-03-20T03:42:47.615Z,1.17
2019-03-20T03:45:54.063Z,1.30
2019-03-20T03:49:00.448Z,1.30
2019-03-20T03:52:08.394Z,1.20
2019-03-20T03:55:15.017Z,1.10
2019-03-20T03:58:21.688Z,1.10
2019-03-20T04:01:29.471Z,1.10
2019-03-20T04:04:36.203Z,1.27
2019-03-20T04:07:42.679Z,1.20
2019-03-20T04:10:49.176Z,1.23
2019-03-20T04:13:57.119Z,1.30
2019-03-20T04:17:23.297Z,1.20
2019-03-20T04:20:31.141Z,1.50
2019-03-20T04:23:37.577Z,1.00
2019-03-20T04:26:46.624Z,1.00
2019-03-20T04:29:53.421Z,1.20
2019-03-20T04:32:59.971Z,1.40
2019-03-20T04:36:07.443Z,1.40
2019-03-20T04:39:13.702Z,1.37
2019-03-20T04:42:20.133Z,1.20
2019-03-20T04:45:26.505Z,1.40
2019-03-20T04:48:33.001Z,1.43
2019-03-20T04:51:39.486Z,1.30
2019-03-20T04:54:46.000Z,1.62
2019-03-20T04:57:52.386Z,1.20
2019-03-20T05:00:58.854Z,1.30
2019-03-20T05:04:05.332Z,1.00
2019-03-20T05:07:13.642Z,1.30
2019-03-20T05:10:20.095Z,1.30
2019-03-20T05:13:26.531Z,1.20
2019-03-20T05:16:33.832Z,1.17
2019-03-20T05:19:40.443Z,1.50
2019-03-20T05:22:46.799Z,1.20
2019-03-20T05:25:53.548Z,1.20
2019-03-20T05:28:59.855Z,1.70
2019-03-20T05:32:06.631Z,1.23
2019-03-20T05:35:14.168Z,1.30
2019-03-20T05:38:20.819Z,1.50
2019-03-20T05:41:27.246Z,1.50
2019-03-20T05:44:34.800Z,1.23
2019-03-20T05:47:42.835Z,1.30
2019-03-20T05:50:49.755Z,1.03
2019-03-20T05:53:56.203Z,1.07
2019-03-20T05:57:02.917Z,1.53
2019-03-20T06:00:10.883Z,1.60
2019-03-20T06:03:24.573Z,2.00
2019-03-20T06:06:31.477Z,1.23
2019-03-20T06:09:39.933Z,1.40
2019-03-20T06:12:46.699Z,1.30
2019-03-20T06:15:53.112Z,1.40
2019-03-20T06:19:00.550Z,1.13
2019-03-20T06:22:07.030Z,1.43
2019-03-20T06:25:13.511Z,1.23
2019-03-20T06:28:19.940Z,1.50
2019-03-20T06:31:27.468Z,1.50
2019-03-20T06:34:34.141Z,1.13
2019-03-20T06:37:40.614Z,1.43
2019-03-20T06:40:48.095Z,2.20
2019-03-20T06:43:54.592Z,1.73
2019-03-20T06:47:01.194Z,1.83
2019-03-20T06:50:11.317Z,1.23
2019-03-20T06:53:17.664Z,1.40
2019-03-20T06:56:24.014Z,1.40
2019-03-20T07:00:10.238Z,1.50
2019-03-20T07:03:29.860Z,1.30
2019-03-20T07:06:59.025Z,1.80
2019-03-20T07:10:34.984Z,1.30
2019-03-20T07:13:41.517Z,1.40
2019-03-20T07:16:47.891Z,1.30
2019-03-20T07:19:55.678Z,1.10
2019-03-20T07:23:03.071Z,1.67
2019-03-20T07:26:09.851Z,1.20
2019-03-20T07:29:16.186Z,1.87
2019-03-20T07:32:22.887Z,1.50
2019-03-20T07:35:32.511Z,1.70
2019-03-20T07:38:39.368Z,1.60
2019-03-20T07:41:45.729Z,1.70
2019-03-20T07:44:52.485Z,1.92
2019-03-20T07:47:59.048Z,1.50
2019-03-20T07:51:05.850Z,1.73
2019-03-20T07:54:12.242Z,1.60
2019-03-20T07:57:19.042Z,2.02
2019-03-20T08:00:25.425Z,1.97
2019-03-20T08:03:31.913Z,1.63
2019-03-20T08:06:39.365Z,1.70
2019-03-20T08:09:45.830Z,1.90
2019-03-20T08:12:52.211Z,2.00
2019-03-20T08:15:58.650Z,1.70
2019-03-20T08:19:05.232Z,2.47
2019-03-20T08:22:11.729Z,2.37
2019-03-20T08:25:18.121Z,2.30
2019-03-20T08:28:24.636Z,2.03
2019-03-20T08:31:31.233Z,2.20
2019-03-20T08:34:38.422Z,2.27
2019-03-20T08:37:46.459Z,2.20
2019-03-20T08:40:53.959Z,1.97
2019-03-20T08:44:00.431Z,2.30
2019-03-20T08:47:06.800Z,2.40
2019-03-20T08:50:15.437Z,2.30
2019-03-20T08:53:22.233Z,2.23
2019-03-20T08:56:28.595Z,2.33
2019-03-20T08:59:35.002Z,2.13
2019-03-20T09:02:41.280Z,2.30
2019-03-20T09:05:49.191Z,2.23
2019-03-20T09:08:55.546Z,2.30
2019-03-20T09:12:03.176Z,2.10
2019-03-20T09:15:11.095Z,2.17
2019-03-20T09:18:17.567Z,2.30
2019-03-20T09:21:23.908Z,2.40
2019-03-20T09:24:30.306Z,1.90
2019-03-20T09:27:36.911Z,2.30
2019-03-20T09:30:43.567Z,2.07
2019-03-20T09:33:49.974Z,2.23
2019-03-20T09:36:56.790Z,2.40
2019-03-20T09:40:03.445Z,2.30
2019-03-20T09:43:09.924Z,2.40
2019-03-20T09:46:16.277Z,2.93
2019-03-20T09:49:22.862Z,2.80
2019-03-20T09:52:29.324Z,2.90
2019-03-20T09:55:35.855Z,2.60
2019-03-20T09:58:42.247Z,2.95
2019-03-20T10:01:48.624Z,3.10
2019-03-20T10:04:55.051Z,2.80
2019-03-20T10:08:01.746Z,3.20
2019-03-20T10:11:08.028Z,3.10
2019-03-20T10:14:14.345Z,3.43
2019-03-20T10:17:20.693Z,3.87
2019-03-20T10:20:27.132Z,3.50
2019-03-20T10:23:33.537Z,3.10
2019-03-20T10:26:40.145Z,3.33
2019-03-20T10:29:46.562Z,2.87
2019-03-20T10:32:53.003Z,3.40
2019-03-20T10:35:59.664Z,3.80
2019-03-20T10:39:09.800Z,3.60
2019-03-20T10:42:16.441Z,3.52
2019-03-20T10:45:23.439Z,3.17
2019-03-20T10:48:29.790Z,3.27
2019-03-20T10:51:36.517Z,3.43
2019-03-20T10:54:43.013Z,3.40
2019-03-20T10:57:49.421Z,3.50
2019-03-20T11:00:55.798Z,3.70
2019-03-20T11:04:02.240Z,2.63
2019-03-20T11:07:09.344Z,3.57
2019-03-20T11:10:17.757Z,2.70
2019-03-20T11:13:24.036Z,3.03
2019-03-20T11:16:30.539Z,2.20
2019-03-20T11:19:36.882Z,2.50
2019-03-20T11:22:43.649Z,2.98
2019-03-20T11:25:50.420Z,2.60
2019-03-20T11:28:56.792Z,3.63
2019-03-20T11:32:03.134Z,2.83
2019-03-20T11:35:09.576Z,3.03
2019-03-20T11:38:15.906Z,3.20
2019-03-20T11:41:22.630Z,3.00
2019-03-20T11:44:29.126Z,2.70
2019-03-20T11:47:35.734Z,2.60
2019-03-20T11:50:42.093Z,2.70
2019-03-20T11:53:48.766Z,2.80
2019-03-20T11:56:56.414Z,2.50
2019-03-20T12:00:02.847Z,2.40
2019-03-20T12:03:09.328Z,2.52
2019-03-20T12:06:16.262Z,2.63
2019-03-20T12:09:24.102Z,2.70
2019-03-20T12:12:32.273Z,2.20
2019-03-20T12:15:38.619Z,2.80
2019-03-20T12:18:45.049Z,2.30
2019-03-20T12:21:51.512Z,2.20
2019-03-20T12:24:57.993Z,2.03
2019-03-20T12:28:04.590Z,2.20
2019-03-20T12:31:11.210Z,2.33
2019-03-20T12:34:20.321Z,2.47
2019-03-20T12:37:28.310Z,2.05
2019-03-20T12:40:34.926Z,2.20
2019-03-20T12:43:41.720Z,2.23
2019-03-20T12:46:48.297Z,1.87
2019-03-20T12:49:55.043Z,1.95
2019-03-20T12:53:02.276Z,2.40
2019-03-20T12:56:08.813Z,2.20
2019-03-20T12:59:15.165Z,2.00
2019-03-20T13:02:21.738Z,1.70
2019-03-20T13:05:28.095Z,1.70
2019-03-20T13:08:34.478Z,1.90
2019-03-20T13:11:40.874Z,1.77
2019-03-20T13:14:48.441Z,1.80
2019-03-20T13:17:54.850Z,1.90
2019-03-20T13:21:02.310Z,1.50
2019-03-20T13:24:08.658Z,1.33
2019-03-20T13:27:15.312Z,1.50
2019-03-20T13:30:24.349Z,1.40
2019-03-20T13:33:30.930Z,1.23
2019-03-20T13:36:37.419Z,1.30
2019-03-20T13:39:43.912Z,1.25
2019-03-20T13:42:50.240Z,1.20
2019-03-20T13:45:57.247Z,1.20
2019-03-20T13:49:03.938Z,1.17
2019-03-20T13:52:10.481Z,1.23
2019-03-20T13:55:19.662Z,1.13
2019-03-20T13:58:27.098Z,1.00
2019-03-20T14:01:33.540Z,1.00
2019-03-20T14:04:40.143Z,1.00
2019-03-20T14:07:46.505Z,1.10
2019-03-20T14:10:53.092Z,1.10
2019-03-20T14:13:59.387Z,1.00
2019-03-20T14:17:05.874Z,1.10
2019-03-20T14:20:14.768Z,1.30
2019-03-20T14:23:21.744Z,1.30
2019-03-20T14:26:29.013Z,1.10
2019-03-20T14:29:35.577Z,0.90
2019-03-20T14:32:42.026Z,1.40
2019-03-20T14:35:48.430Z,1.27
2019-03-20T14:38:54.757Z,1.10
2019-03-20T14:42:01.992Z,1.20
2019-03-20T14:45:11.430Z,1.10
2019-03-20T14:48:20.758Z,1.10
2019-03-20T14:51:27.579Z,1.00
2019-03-20T14:54:34.888Z,1.07
2019-03-20T14:57:45.641Z,1.00
2019-03-20T15:00:52.166Z,1.20
2019-03-20T15:03:58.771Z,1.07
2019-03-20T15:07:05.226Z,1.00
2019-03-20T15:10:13.551Z,1.00
2019-03-20T15:13:22.312Z,1.10
2019-03-20T15:16:28.659Z,1.00
2019-03-20T15:19:35.238Z,1.10
2019-03-20T15:22:42.919Z,0.90
2019-03-20T15:25:49.764Z,1.23
2019-03-20T15:28:56.234Z,1.27
2019-03-20T15:32:02.747Z,1.10
2019-03-20T15:35:09.281Z,1.07
2019-03-20T15:38:16.096Z,1.17
2019-03-20T15:41:25.600Z,1.30
2019-03-20T15:44:34.129Z,1.17
2019-03-20T15:47:40.450Z,1.10
2019-03-20T15:50:47.211Z,1.27
2019-03-20T15:53:54.568Z,0.97
2019-03-20T15:57:01.434Z,1.20
2019-03-20T16:00:11.453Z,1.50
2019-03-20T16:03:18.390Z,1.30
2019-03-20T16:06:25.076Z,1.40
2019-03-20T16:09:31.769Z,1.57
2019-03-20T16:12:41.078Z,1.47
2019-03-20T16:15:47.654Z,1.50
2019-03-20T16:18:54.109Z,2.20
2019-03-20T16:22:01.206Z,1.33
2019-03-20T16:25:08.333Z,1.30
2019-03-20T16:28:17.918Z,1.30
2019-03-20T16:31:24.285Z,1.70
2019-03-20T16:34:32.734Z,1.50
2019-03-20T16:37:42.561Z,1.60
2019-03-20T16:40:51.832Z,2.20
2019-03-20T16:43:58.258Z,1.83
2019-03-20T16:47:04.767Z,1.70
2019-03-20T16:50:12.459Z,2.00
2019-03-20T16:53:19.440Z,1.60
2019-03-20T16:56:25.974Z,1.40
2019-03-20T16:59:35.326Z,1.60
2019-03-20T17:02:41.827Z,1.70
2019-03-20T17:05:48.400Z,1.87
2019-03-20T17:08:54.785Z,1.87
2019-03-20T17:12:01.580Z,2.17
2019-03-20T17:15:19.402Z,2.13
2019-03-20T17:18:26.053Z,1.40
2019-03-20T17:21:33.497Z,1.90
2019-03-20T17:24:40.473Z,1.80
2019-03-20T17:27:46.906Z,2.10
2019-03-20T17:30:53.522Z,1.77
2019-03-20T17:34:16.310Z,2.00
2019-03-20T17:37:22.302Z,1.90
2019-03-20T17:40:28.727Z,1.60
2019-03-20T17:43:35.157Z,1.90
2019-03-20T17:46:42.757Z,2.00
2019-03-20T17:49:49.518Z,2.15
2019-03-20T17:52:55.989Z,1.70
2019-03-20T17:56:04.100Z,1.90
2019-03-20T17:59:13.199Z,2.23
2019-03-20T18:02:24.242Z,2.62
2019-03-20T18:05:43.560Z,2.20
2019-03-20T18:08:51.812Z,1.93
2019-03-20T18:11:58.105Z,1.90
2019-03-20T18:15:05.900Z,2.10
2019-03-20T18:18:12.292Z,2.57
2019-03-20T18:21:18.628Z,2.47
2019-03-20T18:24:27.716Z,2.60
2019-03-20T18:27:36.493Z,3.07
2019-03-20T18:30:42.907Z,2.67
2019-03-20T18:33:50.548Z,2.70
2019-03-20T18:36:59.259Z,2.20
2019-03-20T18:40:09.407Z,2.50
2019-03-20T18:43:16.598Z,2.17
2019-03-20T18:46:23.328Z,2.20
2019-03-20T18:49:30.970Z,2.33
2019-03-20T18:52:37.587Z,2.00
2019-03-20T18:55:44.581Z,2.40
2019-03-20T18:58:51.629Z,1.80
2019-03-20T19:01:58.321Z,2.03
2019-03-20T19:05:06.331Z,2.20
2019-03-20T19:08:12.736Z,2.50
2019-03-20T19:11:19.334Z,1.90
2019-03-20T19:14:27.484Z,7.83
2019-03-20T19:17:34.195Z,2.17
2019-03-20T19:20:43.488Z,6.37
2019-03-20T19:23:50.482Z,1.90
2019-03-20T19:26:56.836Z,2.20
2019-03-20T19:30:03.292Z,1.80
2019-03-20T19:33:09.835Z,1.80
2019-03-20T19:36:16.243Z,1.87
2019-03-20T19:39:22.636Z,2.20
2019-03-20T19:42:29.221Z,2.17
2019-03-20T19:45:35.553Z,1.70
2019-03-20T19:48:41.895Z,2.03
2019-03-20T19:51:48.216Z,1.77
2019-03-20T19:54:55.611Z,2.10
2019-03-20T19:58:01.892Z,2.43
2019-03-20T20:01:08.567Z,2.50
2019-03-20T20:04:16.120Z,1.73
2019-03-20T20:07:22.765Z,1.50
2019-03-20T20:10:29.261Z,1.62
2019-03-20T20:13:35.680Z,1.37
2019-03-20T20:16:46.052Z,1.50
2019-03-20T20:19:52.710Z,1.55
2019-03-20T20:23:00.613Z,1.40
2019-03-20T20:26:07.063Z,1.30
2019-03-20T20:29:13.815Z,1.33
2019-03-20T20:32:20.525Z,1.40
2019-03-20T20:35:26.952Z,1.60
2019-03-20T20:38:34.758Z,1.30
2019-03-20T20:41:41.138Z,1.30
2019-03-20T20:44:47.592Z,1.60
2019-03-20T20:47:53.935Z,1.57
2019-03-20T20:51:00.381Z,1.43
2019-03-20T20:54:11.707Z,1.60
2019-03-20T20:57:18.632Z,1.62
2019-03-20T21:00:24.980Z,1.50
2019-03-20T21:03:34.270Z,1.43
2019-03-20T21:06:40.718Z,1.43
2019-03-20T21:09:48.242Z,1.40
2019-03-20T21:12:57.362Z,1.30
2019-03-20T21:16:04.121Z,1.70
2019-03-20T21:19:33.401Z,1.70
2019-03-20T21:23:22.049Z,1.90
2019-03-20T21:26:28.931Z,1.57
2019-03-20T21:30:09.152Z,1.67
2019-03-20T21:33:59.803Z,1.60
2019-03-20T21:37:59.439Z,1.63
2019-03-20T21:41:50.365Z,1.50
2019-03-20T21:45:14.751Z,1.60
2019-03-20T21:48:21.542Z,1.40
2019-03-20T21:51:28.362Z,1.40
2019-03-20T21:55:29.851Z,1.40
2019-03-20T21:59:02.259Z,1.70
2019-03-20T22:02:47.235Z,1.37
2019-03-20T22:06:44.163Z,2.33
2019-03-20T22:10:33.621Z,1.80
2019-03-20T22:13:44.484Z,1.73
2019-03-20T22:17:50.620Z,1.40
2019-03-20T22:21:35.797Z,1.50
2019-03-20T22:25:11.397Z,1.50
2019-03-20T22:29:10.963Z,1.17
2019-03-20T22:32:58.368Z,1.50
2019-03-20T22:36:32.685Z,1.47
2019-03-20T22:40:36.367Z,1.82
2019-03-20T22:43:50.791Z,1.60
2019-03-20T22:47:37.963Z,1.50
2019-03-20T22:51:00.366Z,1.60
2019-03-20T22:54:31.145Z,1.40
2019-03-20T22:58:17.409Z,1.70
2019-03-20T23:01:48.941Z,1.70
2019-03-20T23:04:58.662Z,1.40
2019-03-20T23:08:12.596Z,1.73
2019-03-20T23:11:19.528Z,1.70
2019-03-20T23:14:26.597Z,1.80
2019-03-20T23:17:33.451Z,1.60
2019-03-20T23:20:40.346Z,1.77
2019-03-20T23:23:48.287Z,1.50
2019-03-20T23:26:56.035Z,1.57
2019-03-20T23:30:04.032Z,1.47
2019-03-20T23:33:11.070Z,1.60
2019-03-20T23:36:18.568Z,1.70
2019-03-20T23:39:26.721Z,1.43
2019-03-20T23:42:33.761Z,1.83
2019-03-20T23:45:40.627Z,1.60
2019-03-20T23:48:57.031Z,1.50
2019-03-20T23:52:04.059Z,1.40
2019-03-20T23:55:12.038Z,1.40
2019-03-20T23:58:21.385Z,1.83
